Time;durP1;ratioP1;P1;durP2;ratioP2;P2;SDS_P1;SDS_P2;PMS_P1;PMS_P2;Temp;Humidity;BMP_temperature;BMP_pressure;BME280_temperature;BME280_humidity;BME280_pressure;Samples;Min_cycle;Max_cycle;Signal;HPM_P1;HPM_P2
2023/09/12 00:01:17;;;;;;;10.25;6.97;;;;;;;22.43;100.00;101073.09;6201541;28;20054;-71
2023/09/12 00:04:20;;;;;;;17.77;8.18;;;;;;;22.06;100.00;100941.97;6204675;28;20053;-71
2023/09/12 00:07:21;;;;;;;13.65;7.15;;;;;;;21.85;100.00;100900.31;6206491;28;20047;-71
2023/09/12 00:10:23;;;;;;;17.80;9.40;;;;;;;21.78;100.00;100881.31;6206464;28;20047;-71
2023/09/12 00:13:24;;;;;;;17.70;8.75;;;;;;;21.60;100.00;100883.13;6206390;28;20176;-69
2023/09/12 00:16:26;;;;;;;19.33;9.57;;;;;;;21.47;100.00;100888.81;6206591;28;20454;-72
2023/09/12 00:19:29;;;;;;;19.73;10.18;;;;;;;21.50;100.00;100898.41;6206061;28;20058;-72
2023/09/12 00:22:30;;;;;;;20.25;12.05;;;;;;;21.48;100.00;100911.94;6206397;28;20446;-72
2023/09/12 00:25:31;;;;;;;16.35;10.40;;;;;;;21.48;100.00;100903.03;6206128;28;20087;-72
2023/09/12 00:28:33;;;;;;;24.85;10.85;;;;;;;21.41;100.00;100908.16;6205780;28;20054;-72
2023/09/12 00:31:34;;;;;;;18.65;11.60;;;;;;;21.34;100.00;100904.38;6206168;28;20061;-72
2023/09/12 00:34:37;;;;;;;18.27;11.00;;;;;;;21.46;100.00;100916.56;6205857;28;20462;-72
2023/09/12 00:37:38;;;;;;;20.98;11.38;;;;;;;21.40;100.00;100917.16;6205831;28;20465;-69
2023/09/12 00:40:40;;;;;;;17.60;9.43;;;;;;;21.37;100.00;100911.25;6205508;28;20358;-72
2023/09/12 00:43:41;;;;;;;18.73;12.00;;;;;;;21.33;100.00;100905.38;6205621;28;20054;-72
2023/09/12 00:46:46;;;;;;;17.02;10.75;;;;;;;21.30;100.00;100908.28;6205727;28;20077;-72
2023/09/12 00:49:51;;;;;;;19.08;11.18;;;;;;;21.31;100.00;100914.50;6205870;28;20054;-72
2023/09/12 00:52:54;;;;;;;19.65;11.75;;;;;;;21.27;100.00;100916.63;6205384;28;20141;-71
2023/09/12 00:55:59;;;;;;;21.55;10.98;;;;;;;21.21;100.00;100918.06;6205733;28;20053;-69
2023/09/12 00:59:02;;;;;;;20.67;11.75;;;;;;;21.19;100.00;100921.84;6205260;28;20061;-71
2023/09/12 01:02:04;;;;;;;25.42;12.43;;;;;;;21.11;100.00;100932.44;6205377;28;20439;-71
2023/09/12 01:05:08;;;;;;;21.90;11.85;;;;;;;21.09;100.00;100931.75;6260020;22;20041;-73
2023/09/12 01:08:10;;;;;;;15.63;10.75;;;;;;;20.98;100.00;100932.75;6253703;28;20437;-74
2023/09/12 01:11:12;;;;;;;21.25;10.95;;;;;;;20.95;100.00;100939.22;6254228;28;20552;-74
2023/09/12 01:14:14;;;;;;;23.92;12.35;;;;;;;20.80;100.00;100942.47;6253751;28;20365;-73
2023/09/12 01:17:15;;;;;;;21.52;11.48;;;;;;;20.95;100.00;100949.91;6253881;28;20053;-74
2023/09/12 01:20:24;;;;;;;18.17;11.57;;;;;;;20.95;100.00;100949.91;6253546;28;20452;-74
2023/09/12 01:23:44;;;;;;;17.83;10.55;;;;;;;20.90;100.00;100962.03;6253931;28;20054;-74
2023/09/12 01:26:56;;;;;;;17.83;10.77;;;;;;;20.85;100.00;100973.16;6253723;28;20045;-74
2023/09/12 01:30:05;;;;;;;26.02;12.43;;;;;;;20.74;100.00;100981.28;6253507;28;20046;-73
2023/09/12 01:33:07;;;;;;;26.85;13.10;;;;;;;20.67;100.00;100994.38;6253480;28;20176;-74
2023/09/12 01:36:09;;;;;;;23.45;13.25;;;;;;;20.63;100.00;100976.97;6253562;28;20053;-73
2023/09/12 01:39:11;;;;;;;24.85;13.30;;;;;;;20.73;100.00;100991.13;6253050;28;20053;-73
2023/09/12 01:42:15;;;;;;;23.63;14.38;;;;;;;20.57;100.00;100990.84;6253480;28;20053;-74
2023/09/12 01:45:19;;;;;;;25.20;13.70;;;;;;;20.65;100.00;100985.66;6253119;28;20049;-72
2023/09/12 01:48:26;;;;;;;25.02;13.50;;;;;;;20.62;100.00;101015.34;6253068;28;20437;-74
2023/09/12 01:51:29;;;;;;;22.38;13.77;;;;;;;20.51;100.00;101035.00;6248694;28;20104;-74
2023/09/12 01:54:31;;;;;;;24.50;14.70;;;;;;;20.40;100.00;101040.44;6220238;28;20045;-73
2023/09/12 01:57:33;;;;;;;24.98;14.10;;;;;;;20.36;100.00;101022.16;6228268;28;20057;-73
2023/09/12 02:00:36;;;;;;;24.15;14.35;;;;;;;20.36;100.00;101031.00;6228339;28;20057;-73
2023/09/12 02:03:38;;;;;;;27.58;15.23;;;;;;;20.19;100.00;101037.00;6227889;28;20049;-73
2023/09/12 02:06:39;;;;;;;26.92;15.70;;;;;;;20.34;100.00;101035.63;6228300;28;20042;-73
2023/09/12 02:09:40;;;;;;;24.42;14.63;;;;;;;20.51;100.00;101031.47;6227954;28;20577;-72
2023/09/12 02:12:42;;;;;;;29.35;16.52;;;;;;;20.44;100.00;101027.66;6227715;28;20438;-74
2023/09/12 02:15:45;;;;;;;30.23;16.05;;;;;;;20.47;100.00;101016.69;6227346;28;20065;-74
2023/09/12 02:18:46;;;;;;;28.50;15.93;;;;;;;20.54;100.00;101027.69;6219914;28;20473;-74
2023/09/12 02:21:47;;;;;;;29.95;16.52;;;;;;;20.56;100.00;101025.72;6227156;28;20050;-74
2023/09/12 02:24:49;;;;;;;30.33;16.45;;;;;;;20.45;100.00;100991.97;6227531;28;20053;-73
2023/09/12 02:27:51;;;;;;;29.00;15.95;;;;;;;20.43;100.00;100969.88;6227016;28;20135;-73
2023/09/12 02:30:53;;;;;;;34.70;17.13;;;;;;;20.39;100.00;100931.94;6227339;28;20365;-73
2023/09/12 02:33:55;;;;;;;36.33;17.58;;;;;;;20.38;100.00;100988.16;6227246;28;20050;-73
2023/09/12 02:36:56;;;;;;;34.90;19.50;;;;;;;20.42;100.00;100995.75;6227689;28;20046;-73
2023/09/12 02:39:57;;;;;;;35.60;19.90;;;;;;;20.35;100.00;100965.25;6227117;28;20056;-73
2023/09/12 02:42:59;;;;;;;37.35;18.77;;;;;;;20.28;100.00;100964.13;6227360;28;20050;-73
2023/09/12 02:46:01;;;;;;;35.92;19.05;;;;;;;20.34;100.00;101014.28;6227056;28;20438;-73
2023/09/12 02:49:03;;;;;;;40.15;19.45;;;;;;;20.37;100.00;101018.50;6227088;28;20050;-73
2023/09/12 02:52:05;;;;;;;34.55;17.92;;;;;;;20.46;100.00;101031.84;6227237;28;20046;-73
2023/09/12 02:55:07;;;;;;;34.40;17.75;;;;;;;20.49;100.00;101036.13;6227038;28;20046;-73
2023/09/12 02:58:09;;;;;;;41.75;19.17;;;;;;;20.41;100.00;101004.75;6226784;28;20042;-73
2023/09/12 03:01:16;;;;;;;40.83;19.17;;;;;;;20.32;100.00;101002.91;6226996;28;20074;-73
2023/09/12 03:04:18;;;;;;;35.97;19.55;;;;;;;20.21;100.00;101025.22;6226763;28;20100;-72
2023/09/12 03:07:19;;;;;;;42.00;20.42;;;;;;;20.16;100.00;101086.16;6226853;28;20046;-73
2023/09/12 03:10:21;;;;;;;40.83;21.70;;;;;;;19.74;100.00;101117.44;6225410;28;20046;-73
2023/09/12 03:13:25;;;;;;;50.03;23.38;;;;;;;19.69;100.00;101076.97;6217849;28;20437;-74
2023/09/12 03:16:28;;;;;;;46.10;23.67;;;;;;;19.64;100.00;101093.38;6225094;28;20049;-73
2023/09/12 03:19:32;;;;;;;48.92;22.13;;;;;;;19.67;100.00;101057.63;6224452;28;20057;-73
2023/09/12 03:22:37;;;;;;;55.75;22.95;;;;;;;19.67;100.00;101085.13;6221127;28;20072;-73
2023/09/12 03:25:39;;;;;;;47.17;20.77;;;;;;;19.60;100.00;101069.75;6217676;28;20134;-73
2023/09/12 03:28:41;;;;;;;40.60;20.92;;;;;;;19.71;100.00;101051.00;6211006;28;20050;-72
2023/09/12 03:31:43;;;;;;;44.40;21.85;;;;;;;19.82;100.00;101066.94;6212324;28;20558;-72
2023/09/12 03:34:45;;;;;;;41.13;20.10;;;;;;;19.85;100.00;101068.47;6204239;28;20359;-74
2023/09/12 03:37:46;;;;;;;48.58;22.02;;;;;;;19.84;100.00;101059.63;6201109;28;20061;-72
2023/09/12 03:40:48;;;;;;;43.67;20.95;;;;;;;19.82;100.00;101053.59;6201692;28;20050;-74
2023/09/12 03:43:49;;;;;;;42.95;22.20;;;;;;;19.89;100.00;101053.91;6201874;28;20053;-73
2023/09/12 03:46:52;;;;;;;44.78;22.17;;;;;;;19.91;100.00;101035.94;6201633;28;20132;-74
2023/09/12 03:49:53;;;;;;;43.72;21.98;;;;;;;19.92;100.00;101018.97;6201528;28;20057;-73
2023/09/12 03:52:55;;;;;;;45.22;22.83;;;;;;;19.90;100.00;100968.44;6206379;28;20046;-75
2023/09/12 03:55:56;;;;;;;41.38;21.83;;;;;;;19.87;100.00;100967.84;6218660;28;20058;-73
2023/09/12 03:58:59;;;;;;;39.35;20.77;;;;;;;19.88;100.00;100949.03;6225601;28;20057;-73
2023/09/12 04:02:03;;;;;;;43.00;21.20;;;;;;;19.80;100.00;100892.00;6225908;28;20298;-76
2023/09/12 04:05:05;;;;;;;45.80;21.63;;;;;;;19.75;100.00;100892.44;6225592;28;20073;-75
2023/09/12 04:08:06;;;;;;;34.58;18.40;;;;;;;19.72;100.00;100864.22;6225827;28;20057;-73
2023/09/12 04:11:08;;;;;;;41.25;19.52;;;;;;;19.77;100.00;100861.16;6226030;28;20060;-75
2023/09/12 04:14:09;;;;;;;37.92;19.55;;;;;;;19.76;100.00;100862.97;6226245;28;20045;-73
2023/09/12 04:17:12;;;;;;;39.47;21.75;;;;;;;19.81;100.00;100862.56;6225928;28;20053;-74
2023/09/12 04:20:14;;;;;;;37.33;19.55;;;;;;;19.82;100.00;100866.06;6225731;28;20065;-83
2023/09/12 04:23:16;;;;;;;41.08;20.15;;;;;;;19.82;100.00;100877.56;6225578;28;20512;-82
2023/09/12 04:26:17;;;;;;;42.08;20.38;;;;;;;19.85;100.00;100879.97;6214296;28;20057;-83
2023/09/12 04:29:19;;;;;;;38.78;20.40;;;;;;;19.85;100.00;100897.78;6226013;28;20054;-82
2023/09/12 04:32:23;;;;;;;35.88;18.10;;;;;;;19.85;100.00;100911.97;6225789;28;20053;-82
2023/09/12 04:35:25;;;;;;;41.33;19.50;;;;;;;19.87;100.00;100914.50;6225867;28;20042;-81
2023/09/12 04:38:26;;;;;;;38.70;17.10;;;;;;;19.84;100.00;100946.78;6225944;28;20136;-85
2023/09/12 04:41:28;;;;;;;34.22;17.00;;;;;;;19.76;100.00;100940.31;6226009;28;20144;-80
2023/09/12 04:44:29;;;;;;;34.88;17.42;;;;;;;19.70;100.00;100951.50;6225531;28;20046;-80
2023/09/12 04:47:32;;;;;;;30.33;17.23;;;;;;;19.56;100.00;100962.50;6225727;28;20056;-80
2023/09/12 04:50:34;;;;;;;27.52;16.15;;;;;;;19.57;100.00;100964.19;6220537;28;20049;-82
2023/09/12 04:53:35;;;;;;;27.55;15.45;;;;;;;19.54;100.00;100963.66;6229802;28;20049;-83
2023/09/12 04:56:36;;;;;;;28.38;15.57;;;;;;;19.58;100.00;100968.56;6229937;28;20132;-84
2023/09/12 04:59:38;;;;;;;23.92;12.75;;;;;;;19.53;100.00;100973.47;6229586;28;20054;-82
2023/09/12 05:02:40;;;;;;;21.55;12.85;;;;;;;19.48;100.00;100971.22;6229930;28;20061;-81
2023/09/12 05:05:42;;;;;;;19.17;11.93;;;;;;;19.52;100.00;100974.41;6229437;28;20046;-79
2023/09/12 05:08:43;;;;;;;23.30;11.63;;;;;;;19.45;100.00;100979.47;6229563;28;20045;-80
2023/09/12 05:11:45;;;;;;;23.67;12.25;;;;;;;19.44;100.00;100985.78;6229482;28;20054;-83
2023/09/12 05:14:46;;;;;;;20.73;11.15;;;;;;;19.41;100.00;100993.19;6229678;28;20169;-80
2023/09/12 05:17:49;;;;;;;22.75;12.77;;;;;;;19.41;100.00;101011.84;6229421;28;20054;-81
2023/09/12 05:20:50;;;;;;;27.80;14.02;;;;;;;19.41;100.00;101011.84;6229243;28;20057;-80
2023/09/12 05:23:52;;;;;;;24.33;13.80;;;;;;;19.34;100.00;101006.19;6229023;28;20076;-77
2023/09/12 05:26:53;;;;;;;23.70;12.02;;;;;;;19.36;100.00;100993.59;6252599;28;20073;-78
2023/09/12 05:29:54;;;;;;;18.27;10.38;;;;;;;19.27;100.00;100984.56;6252505;28;20088;-79
2023/09/12 05:32:57;;;;;;;18.95;9.13;;;;;;;19.16;100.00;100983.78;6252306;28;20056;-78
2023/09/12 05:35:59;;;;;;;16.88;8.52;;;;;;;19.10;100.00;101006.47;6253413;28;20212;-79
2023/09/12 05:39:00;;;;;;;18.67;8.95;;;;;;;19.03;100.00;101010.66;6250247;28;20049;-81
2023/09/12 05:42:01;;;;;;;15.18;7.90;;;;;;;18.96;100.00;101010.31;6247909;28;20049;-79
2023/09/12 05:45:03;;;;;;;13.07;7.70;;;;;;;18.97;100.00;101016.47;6243481;28;20057;-80
2023/09/12 05:48:06;;;;;;;17.58;9.07;;;;;;;18.99;100.00;101015.38;6251140;28;20358;-81
2023/09/12 05:51:07;;;;;;;13.45;7.80;;;;;;;19.05;100.00;101010.50;6251774;28;20050;-82
2023/09/12 05:54:10;;;;;;;12.27;8.02;;;;;;;19.04;100.00;101004.34;6251450;28;20046;-82
2023/09/12 05:57:12;;;;;;;19.45;8.45;;;;;;;19.02;100.00;101001.78;6252697;28;20045;-81
2023/09/12 06:00:15;;;;;;;15.63;8.70;;;;;;;19.08;100.00;101000.44;6250839;28;20056;-73
2023/09/12 06:03:17;;;;;;;15.75;6.70;;;;;;;19.14;100.00;100993.75;6252477;28;20064;-73
2023/09/12 06:06:19;;;;;;;15.02;8.32;;;;;;;19.12;100.00;101025.84;6252751;28;20057;-73
2023/09/12 06:09:20;;;;;;;11.95;7.43;;;;;;;19.04;100.00;101022.16;6252679;28;20049;-74
2023/09/12 06:12:22;;;;;;;12.13;6.70;;;;;;;19.10;100.00;101018.94;6252752;28;20049;-73
2023/09/12 06:15:24;;;;;;;15.52;7.00;;;;;;;19.03;100.00;100992.00;6252736;28;20138;-73
2023/09/12 06:18:29;;;;;;;16.17;8.25;;;;;;;19.02;100.00;100984.97;6252281;28;20053;-73
2023/09/12 06:21:31;;;;;;;12.32;7.72;;;;;;;19.02;100.00;100975.16;6252397;28;20484;-73
2023/09/12 06:24:32;;;;;;;18.55;8.07;;;;;;;19.05;100.00;100939.44;6240620;28;20069;-73
2023/09/12 06:27:33;;;;;;;19.70;8.10;;;;;;;18.94;100.00;100974.09;6227595;28;20046;-74
2023/09/12 06:30:35;;;;;;;12.25;7.13;;;;;;;18.97;100.00;100979.19;6227478;28;20045;-74
2023/09/12 06:33:38;;;;;;;11.23;7.15;;;;;;;18.97;100.00;100985.34;6227557;28;20060;-73
2023/09/12 06:36:41;;;;;;;13.10;6.85;;;;;;;19.04;100.00;100998.16;6227788;28;20053;-73
2023/09/12 06:39:42;;;;;;;12.35;7.55;;;;;;;19.04;100.00;101004.34;6227300;28;20479;-73
2023/09/12 06:42:44;;;;;;;10.98;6.65;;;;;;;19.07;100.00;101008.53;6227820;28;20049;-74
2023/09/12 06:45:47;;;;;;;12.32;7.38;;;;;;;19.09;100.00;100993.28;6227198;28;20046;-74
2023/09/12 06:48:50;;;;;;;16.77;7.78;;;;;;;19.02;100.00;101006.28;6227184;28;20042;-73
2023/09/12 06:51:51;;;;;;;16.52;8.90;;;;;;;19.00;100.00;101013.56;6227276;28;20057;-74
2023/09/12 06:54:53;;;;;;;10.70;6.95;;;;;;;18.94;100.00;101009.59;6227342;28;20053;-74
2023/09/12 06:57:54;;;;;;;16.88;7.65;;;;;;;18.97;100.00;101008.47;6227102;28;20052;-74
2023/09/12 07:00:55;;;;;;;15.32;8.75;;;;;;;18.94;100.00;100992.75;6237792;28;20046;-74
2023/09/12 07:03:58;;;;;;;12.32;7.05;;;;;;;18.93;100.00;100980.41;6251165;28;20060;-74
2023/09/12 07:06:59;;;;;;;12.23;7.25;;;;;;;18.87;100.00;100967.63;6250979;28;20041;-74
2023/09/12 07:10:01;;;;;;;14.48;7.30;;;;;;;18.86;100.00;100960.63;6250609;28;20052;-74
2023/09/12 07:13:03;;;;;;;13.68;7.93;;;;;;;18.89;100.00;100950.53;6249717;28;20050;-74
2023/09/12 07:16:05;;;;;;;13.32;7.00;;;;;;;18.98;100.00;100943.56;6245672;28;20053;-74
2023/09/12 07:19:08;;;;;;;14.07;8.68;;;;;;;19.09;100.00;100951.50;6258024;28;20104;-73
2023/09/12 07:22:09;;;;;;;17.52;8.70;;;;;;;19.07;100.00;100955.25;6250168;28;20053;-73
2023/09/12 07:25:11;;;;;;;9.30;6.22;;;;;;;19.15;100.00;100950.13;6251335;28;20049;-73
2023/09/12 07:28:14;;;;;;;10.40;7.10;;;;;;;19.19;100.00;100967.53;6246829;28;20042;-73
2023/09/12 07:31:15;;;;;;;16.00;7.90;;;;;;;19.12;100.00;100964.56;6242363;28;20059;-73
2023/09/12 07:34:18;;;;;;;11.15;6.65;;;;;;;19.18;100.00;100965.88;6246097;28;20115;-73
2023/09/12 07:37:19;;;;;;;12.48;6.57;;;;;;;19.23;100.00;100956.47;6245031;28;20049;-73
2023/09/12 07:40:21;;;;;;;12.43;6.70;;;;;;;19.08;100.00;100946.31;6241263;28;20068;-73
2023/09/12 07:43:22;;;;;;;9.52;6.47;;;;;;;19.13;100.00;100950.28;6250087;28;20045;-73
2023/09/12 07:46:24;;;;;;;9.50;5.85;;;;;;;19.21;100.00;100947.78;6250407;28;20045;-73
2023/09/12 07:49:26;;;;;;;9.63;6.88;;;;;;;19.19;100.00;100970.22;6247842;28;20056;-72
2023/09/12 07:52:28;;;;;;;14.30;7.07;;;;;;;19.29;100.00;101010.22;6244263;28;20045;-72
2023/09/12 07:55:34;;;;;;;9.95;5.88;;;;;;;19.36;100.00;101012.25;6250057;28;20042;-72
2023/09/12 07:58:35;;;;;;;10.73;6.68;;;;;;;19.37;100.00;101037.06;6249660;28;20053;-72
2023/09/12 08:01:37;;;;;;;9.25;6.10;;;;;;;19.33;100.00;101038.31;6250478;28;20057;-72
2023/09/12 08:04:39;;;;;;;9.43;5.40;;;;;;;19.25;100.00;101052.28;6250103;28;20061;-73
2023/09/12 08:07:41;;;;;;;8.65;5.80;;;;;;;19.29;100.00;101069.69;6250643;28;20050;-73
2023/09/12 08:10:42;;;;;;;15.07;6.15;;;;;;;19.41;100.00;101091.81;6250110;28;20053;-73
2023/09/12 08:13:44;;;;;;;11.38;6.97;;;;;;;19.31;100.00;101123.72;6246032;28;20053;-75
2023/09/12 08:16:46;;;;;;;10.05;6.30;;;;;;;19.21;100.00;101146.75;6249403;28;20052;-76
2023/09/12 08:19:48;;;;;;;10.13;6.40;;;;;;;19.18;100.00;101131.91;6243631;28;20361;-74
2023/09/12 08:22:50;;;;;;;10.80;7.03;;;;;;;19.18;100.00;101133.72;6249588;28;20053;-73
2023/09/12 08:25:54;;;;;;;13.43;6.78;;;;;;;19.12;100.00;101124.44;6248763;28;20456;-74
2023/09/12 08:28:56;;;;;;;13.23;6.07;;;;;;;19.06;100.00;101124.06;6248829;28;20457;-79
2023/09/12 08:31:57;;;;;;;7.75;5.20;;;;;;;19.10;100.00;101123.69;6253912;28;20472;-74
2023/09/12 08:35:00;;;;;;;9.93;6.45;;;;;;;19.12;100.00;101143.06;6248644;28;20049;-74
2023/09/12 08:38:01;;;;;;;12.68;7.00;;;;;;;19.11;100.00;101137.84;6246304;28;20048;-76
2023/09/12 08:41:02;;;;;;;9.63;6.80;;;;;;;19.04;100.00;101142.88;6244743;28;20053;-76
2023/09/12 08:44:05;;;;;;;12.18;7.18;;;;;;;19.04;100.00;101126.88;6241527;28;20045;-74
2023/09/12 08:47:09;;;;;;;13.88;6.10;;;;;;;19.04;100.00;101121.53;6240881;28;20053;-74
2023/09/12 08:50:14;;;;;;;11.43;6.43;;;;;;;19.00;100.00;101128.94;6241091;28;20053;-75
2023/09/12 08:53:15;;;;;;;10.90;6.40;;;;;;;19.04;100.00;101142.88;6247450;28;20057;-75
2023/09/12 08:56:18;;;;;;;9.13;5.47;;;;;;;19.04;100.00;101145.53;6247928;28;20054;-75
2023/09/12 08:59:20;;;;;;;12.35;7.15;;;;;;;19.08;100.00;101143.47;6253949;28;20441;-75
2023/09/12 09:02:22;;;;;;;12.27;6.63;;;;;;;19.05;100.00;101149.03;6249691;28;20046;-79
2023/09/12 09:05:26;;;;;;;11.05;6.55;;;;;;;19.07;100.00;101161.22;6251252;28;20054;-75
2023/09/12 09:08:29;;;;;;;9.85;6.40;;;;;;;19.07;100.00;101171.03;6253929;28;20046;-76
2023/09/12 09:11:30;;;;;;;9.50;6.20;;;;;;;19.02;100.00;101172.28;6253803;28;20133;-75
2023/09/12 09:14:32;;;;;;;13.07;6.55;;;;;;;18.94;100.00;101179.19;6246018;28;20045;-75
2023/09/12 09:17:33;;;;;;;9.85;5.40;;;;;;;18.88;100.00;101150.41;6246522;28;20053;-76
2023/09/12 09:20:37;;;;;;;12.35;6.13;;;;;;;18.78;100.00;101128.16;6252725;28;20057;-75
2023/09/12 09:23:45;;;;;;;10.73;5.90;;;;;;;18.77;100.00;101123.81;6251409;28;20049;-75
2023/09/12 09:26:48;;;;;;;11.50;6.00;;;;;;;18.75;100.00;101127.44;6250922;28;20052;-76
2023/09/12 09:29:49;;;;;;;10.13;6.32;;;;;;;18.79;100.00;101154.66;6250172;28;20114;-75
2023/09/12 09:32:55;;;;;;;11.43;5.47;;;;;;;18.79;100.00;101160.00;6249305;28;20042;-75
2023/09/12 09:36:05;;;;;;;9.73;5.50;;;;;;;18.75;100.00;101178.03;6247944;28;20050;-76
2023/09/12 09:39:07;;;;;;;11.60;6.05;;;;;;;18.76;100.00;101173.56;6244699;28;20128;-75
2023/09/12 09:42:11;;;;;;;11.10;6.30;;;;;;;18.67;100.00;101172.47;6253230;28;20365;-75
2023/09/12 09:45:13;;;;;;;11.68;6.80;;;;;;;18.64;100.00;101170.03;6246914;28;20115;-79
2023/09/12 09:48:19;;;;;;;11.52;6.80;;;;;;;18.55;100.00;101176.09;6244106;28;20045;-75
2023/09/12 09:51:22;;;;;;;11.27;6.03;;;;;;;18.56;100.00;101177.78;6244381;28;20049;-76
2023/09/12 09:54:25;;;;;;;10.13;6.40;;;;;;;18.55;100.00;101172.59;6244228;28;20064;-75
2023/09/12 09:57:27;;;;;;;9.43;5.75;;;;;;;18.45;100.00;101165.34;6243820;28;20128;-76
2023/09/12 10:00:30;;;;;;;9.38;6.13;;;;;;;18.47;100.00;101159.91;6243996;28;20453;-75
2023/09/12 10:03:35;;;;;;;10.75;6.47;;;;;;;18.45;100.00;101168.00;6239407;28;20049;-75
2023/09/12 10:06:39;;;;;;;11.23;5.18;;;;;;;18.45;100.00;101175.16;6243288;28;20049;-75
2023/09/12 10:09:42;;;;;;;11.52;6.22;;;;;;;18.51;100.00;101159.53;6245963;28;20199;-75
2023/09/12 10:12:49;;;;;;;13.95;6.22;;;;;;;18.54;100.00;101145.13;6245060;28;20128;-75
2023/09/12 10:15:52;;;;;;;8.35;5.22;;;;;;;18.55;100.00;101141.50;6252588;28;20429;-74
2023/09/12 10:18:59;;;;;;;12.13;5.72;;;;;;;18.52;100.00;101137.25;6252557;28;20045;-75
2023/09/12 10:22:10;;;;;;;13.88;6.05;;;;;;;18.47;100.00;101130.63;6252476;28;20053;-75
2023/09/12 10:25:12;;;;;;;15.45;6.78;;;;;;;18.48;100.00;101137.63;6252466;28;20056;-76
2023/09/12 10:28:14;;;;;;;11.77;6.20;;;;;;;18.45;100.00;101122.78;6244563;28;20053;-75
2023/09/12 10:31:17;;;;;;;9.63;5.10;;;;;;;18.54;100.00;101099.88;6254054;28;20049;-75
2023/09/12 10:34:20;;;;;;;10.52;5.63;;;;;;;18.49;100.00;101078.97;6251358;28;20053;-75
2023/09/12 10:37:26;;;;;;;8.55;5.40;;;;;;;18.48;100.00;101077.25;6254097;28;20052;-75
2023/09/12 10:40:28;;;;;;;9.80;6.07;;;;;;;18.44;100.00;101086.47;6251696;28;20449;-75
2023/09/12 10:43:33;;;;;;;8.23;5.30;;;;;;;18.50;100.00;101125.91;6251929;28;20053;-75
2023/09/12 10:46:34;;;;;;;9.13;4.95;;;;;;;18.51;100.00;101116.94;6251380;28;20050;-75
2023/09/12 10:49:36;;;;;;;9.80;6.05;;;;;;;18.54;100.00;101101.72;6251522;28;20353;-75
2023/09/12 10:52:40;;;;;;;11.30;6.82;;;;;;;18.56;100.00;101089.94;6252018;28;20056;-75
2023/09/12 10:55:42;;;;;;;11.07;6.40;;;;;;;18.57;100.00;101106.75;6251619;28;20471;-75
2023/09/12 10:59:13;;;;;;;13.32;6.78;;;;;;;18.59;100.00;101092.38;6251368;28;20072;-75
2023/09/12 11:02:31;;;;;;;13.95;7.32;;;;;;;18.63;100.00;101088.50;6251464;28;20049;-75
2023/09/12 11:05:37;;;;;;;17.87;6.43;;;;;;;18.62;100.00;101100.13;6251439;28;20084;-74
2023/09/12 11:08:41;;;;;;;9.52;5.35;;;;;;;18.64;100.00;101121.28;6250969;28;20048;-74
2023/09/12 11:11:43;;;;;;;17.13;6.97;;;;;;;18.65;100.00;101138.94;6251507;28;20045;-75
2023/09/12 11:15:06;;;;;;;10.43;6.28;;;;;;;18.62;100.00;101131.19;6247030;28;20056;-77
2023/09/12 11:18:07;;;;;;;10.75;6.20;;;;;;;18.58;100.00;101143.09;6232907;28;20049;-74
2023/09/12 11:21:09;;;;;;;9.35;5.57;;;;;;;18.62;100.00;101120.53;6247136;28;20473;-75
2023/09/12 11:24:12;;;;;;;12.00;6.68;;;;;;;18.64;100.00;101114.13;6245320;28;20358;-75
2023/09/12 11:27:13;;;;;;;10.10;6.38;;;;;;;18.57;100.00;101136.03;6249072;28;20049;-77
2023/09/12 11:30:17;;;;;;;12.48;6.90;;;;;;;18.61;100.00;101133.00;6245453;28;20140;-75
2023/09/12 11:33:18;;;;;;;14.38;7.13;;;;;;;18.64;100.00;101140.75;6250708;28;20052;-75
2023/09/12 11:36:20;;;;;;;10.25;5.57;;;;;;;18.65;100.00;101138.94;6248856;28;20054;-75
2023/09/12 11:39:29;;;;;;;9.27;6.10;;;;;;;18.61;100.00;101124.19;6248203;28;20049;-75
2023/09/12 11:42:31;;;;;;;9.20;5.60;;;;;;;18.59;100.00;101128.78;6246925;28;20053;-75
2023/09/12 11:45:32;;;;;;;10.02;6.38;;;;;;;18.61;100.00;101118.84;6246930;28;20296;-75
2023/09/12 11:48:34;;;;;;;13.27;6.90;;;;;;;18.67;100.00;101118.38;6254808;28;20038;-75
2023/09/12 11:51:36;;;;;;;11.32;5.15;;;;;;;18.64;100.00;101116.78;6251993;28;20456;-75
2023/09/12 11:54:40;;;;;;;10.93;6.65;;;;;;;18.60;100.00;101110.03;6242824;28;20433;-75
2023/09/12 11:57:41;;;;;;;8.98;6.10;;;;;;;18.71;100.00;101106.50;6250332;28;20056;-76
2023/09/12 12:00:46;;;;;;;9.52;6.18;;;;;;;18.72;100.00;101100.25;6248254;28;20057;-75
2023/09/12 12:03:52;;;;;;;12.30;6.93;;;;;;;18.74;100.00;101096.47;6245160;28;20053;-74
2023/09/12 12:06:54;;;;;;;9.55;5.93;;;;;;;18.76;100.00;101096.34;6244880;28;20498;-75
2023/09/12 12:09:56;;;;;;;11.38;6.10;;;;;;;18.85;100.00;101094.72;6243194;28;20060;-75
2023/09/12 12:12:58;;;;;;;10.63;4.90;;;;;;;18.90;100.00;101098.72;6250084;28;20049;-75
2023/09/12 12:15:59;;;;;;;10.60;6.60;;;;;;;18.98;100.00;101093.56;6250531;28;20057;-75
2023/09/12 12:19:00;;;;;;;7.45;4.88;;;;;;;19.15;100.00;101094.00;6246491;28;20357;-75
2023/09/12 12:22:02;;;;;;;6.70;4.47;;;;;;;19.54;100.00;101083.63;6250381;28;20077;-77
2023/09/12 12:25:08;;;;;;;11.20;6.07;;;;;;;20.00;100.00;101086.66;6250260;28;20049;-77
2023/09/12 12:28:10;;;;;;;7.88;5.05;;;;;;;20.38;100.00;101074.41;6250214;28;20061;-77
2023/09/12 12:31:11;;;;;;;6.88;4.68;;;;;;;20.71;100.00;101081.25;6249323;28;20053;-77
2023/09/12 12:34:12;;;;;;;8.27;4.72;;;;;;;20.98;100.00;101080.56;6243509;28;20049;-76
2023/09/12 12:37:14;;;;;;;4.80;3.65;;;;;;;21.10;100.00;101080.41;6241929;28;20057;-74
2023/09/12 12:40:18;;;;;;;6.70;3.17;;;;;;;21.02;100.00;101081.13;6247841;28;20045;-74
2023/09/12 12:43:20;;;;;;;5.22;2.72;;;;;;;21.26;100.00;101076.19;6243914;28;20061;-82
2023/09/12 12:46:22;;;;;;;4.68;2.97;;;;;;;21.16;100.00;101071.81;6249761;28;20046;-74
2023/09/12 12:49:24;;;;;;;9.40;3.20;;;;;;;20.88;100.00;101079.72;6249745;28;20077;-73
2023/09/12 12:52:26;;;;;;;5.68;3.15;;;;;;;20.96;100.00;101076.34;6249288;28;20054;-73
2023/09/12 12:55:28;;;;;;;4.63;2.83;;;;;;;20.64;100.00;101063.25;6248603;28;20115;-73
2023/09/12 12:58:30;;;;;;;4.22;2.72;;;;;;;20.57;100.00;101065.63;6249230;28;20108;-72
2023/09/12 13:01:31;;;;;;;4.35;2.63;;;;;;;20.55;100.00;101061.41;6250059;28;20068;-73
2023/09/12 13:04:37;;;;;;;4.40;2.67;;;;;;;21.01;100.00;101061.56;6279465;23;20045;-74
2023/09/12 13:07:38;;;;;;;4.00;2.60;;;;;;;21.38;100.00;101054.66;6259357;28;20049;-74
2023/09/12 13:10:42;;;;;;;2.58;1.95;;;;;;;21.78;100.00;101049.03;6255046;28;20045;-74
2023/09/12 13:13:44;;;;;;;2.35;1.98;;;;;;;21.73;100.00;101046.81;6279051;28;20311;-74
2023/09/12 13:16:45;;;;;;;3.83;2.35;;;;;;;21.25;100.00;101045.06;6259712;28;20056;-74
2023/09/12 13:19:47;;;;;;;4.03;2.25;;;;;;;20.62;100.00;101043.84;6253626;28;20353;-74
2023/09/12 13:22:48;;;;;;;3.55;2.58;;;;;;;20.72;100.00;101037.53;6253985;28;20056;-74
2023/09/12 13:25:51;;;;;;;3.20;2.38;;;;;;;21.05;100.00;101021.19;6254289;28;20049;-74
2023/09/12 13:28:52;;;;;;;4.40;2.42;;;;;;;21.21;100.00;101010.75;6253478;28;20045;-74
2023/09/12 13:31:54;;;;;;;5.13;2.65;;;;;;;21.84;100.00;101018.16;6253765;28;20358;-74
2023/09/12 13:34:55;;;;;;;3.90;2.42;;;;;;;22.03;100.00;101026.13;6253516;28;20365;-74
2023/09/12 13:37:57;;;;;;;3.28;2.03;;;;;;;22.07;100.00;101023.97;6253404;28;20069;-73
2023/09/12 13:40:59;;;;;;;3.47;2.28;;;;;;;21.86;100.00;101021.56;6253495;28;20053;-73
2023/09/12 13:44:01;;;;;;;3.17;2.63;;;;;;;21.72;100.00;101022.88;6253458;28;20049;-74
2023/09/12 13:47:02;;;;;;;2.65;2.30;;;;;;;21.43;100.00;101012.28;6253533;28;20054;-74